sensor_id;sensor_type;location;lat;lon;timestamp;P1;durP1;ratioP1;P2;durP2;ratioP2
77400;SDS011;74775;45.476;11.016;2024-01-16T00:01:55;55.00;;;28.70;;
77400;SDS011;74775;45.476;11.016;2024-01-16T00:04:22;51.60;;;27.20;;
77400;SDS011;74775;45.476;11.016;2024-01-16T00:06:49;49.80;;;25.80;;
77400;SDS011;74775;45.476;11.016;2024-01-16T00:09:16;50.00;;;26.80;;
77400;SDS011;74775;45.476;11.016;2024-01-16T00:11:43;51.00;;;24.90;;
77400;SDS011;74775;45.476;11.016;2024-01-16T00:14:10;44.20;;;24.30;;
77400;SDS011;74775;45.476;11.016;2024-01-16T00:16:46;49.20;;;24.50;;
77400;SDS011;74775;45.476;11.016;2024-01-16T00:19:14;43.20;;;23.40;;
77400;SDS011;74775;45.476;11.016;2024-01-16T00:21:41;44.50;;;24.30;;
77400;SDS011;74775;45.476;11.016;2024-01-16T00:24:09;49.10;;;24.20;;
77400;SDS011;74775;45.476;11.016;2024-01-16T00:26:36;48.00;;;25.10;;
77400;SDS011;74775;45.476;11.016;2024-01-16T00:29:03;47.70;;;24.40;;
77400;SDS011;74775;45.476;11.016;2024-01-16T00:31:29;47.80;;;24.20;;
77400;SDS011;74775;45.476;11.016;2024-01-16T00:33:56;47.40;;;24.30;;
77400;SDS011;74775;45.476;11.016;2024-01-16T00:36:23;49.10;;;25.30;;
77400;SDS011;74775;45.476;11.016;2024-01-16T00:38:50;45.30;;;23.20;;
77400;SDS011;74775;45.476;11.016;2024-01-16T00:41:17;43.20;;;24.20;;
77400;SDS011;74775;45.476;11.016;2024-01-16T00:43:44;43.80;;;22.50;;
77400;SDS011;74775;45.476;11.016;2024-01-16T00:46:11;39.10;;;21.30;;
77400;SDS011;74775;45.476;11.016;2024-01-16T00:48:38;42.80;;;22.40;;
77400;SDS011;74775;45.476;11.016;2024-01-16T00:51:05;40.70;;;20.50;;
77400;SDS011;74775;45.476;11.016;2024-01-16T00:53:32;43.00;;;20.90;;
77400;SDS011;74775;45.476;11.016;2024-01-16T00:55:59;40.50;;;20.40;;
77400;SDS011;74775;45.476;11.016;2024-01-16T00:58:25;40.20;;;21.00;;
77400;SDS011;74775;45.476;11.016;2024-01-16T01:00:53;36.30;;;19.60;;
77400;SDS011;74775;45.476;11.016;2024-01-16T01:03:20;39.40;;;19.30;;
77400;SDS011;74775;45.476;11.016;2024-01-16T01:05:47;34.80;;;18.50;;
77400;SDS011;74775;45.476;11.016;2024-01-16T01:08:14;35.30;;;18.40;;
77400;SDS011;74775;45.476;11.016;2024-01-16T01:10:40;36.00;;;18.90;;
77400;SDS011;74775;45.476;11.016;2024-01-16T01:13:07;33.00;;;18.20;;
77400;SDS011;74775;45.476;11.016;2024-01-16T01:15:34;33.00;;;17.80;;
77400;SDS011;74775;45.476;11.016;2024-01-16T01:18:01;32.50;;;17.40;;
77400;SDS011;74775;45.476;11.016;2024-01-16T01:20:28;37.80;;;19.60;;
77400;SDS011;74775;45.476;11.016;2024-01-16T01:22:55;36.30;;;18.20;;
77400;SDS011;74775;45.476;11.016;2024-01-16T01:25:22;35.80;;;18.20;;
77400;SDS011;74775;45.476;11.016;2024-01-16T01:27:49;34.40;;;18.10;;
77400;SDS011;74775;45.476;11.016;2024-01-16T01:30:16;36.70;;;18.90;;
77400;SDS011;74775;45.476;11.016;2024-01-16T01:32:43;38.00;;;20.60;;
77400;SDS011;74775;45.476;11.016;2024-01-16T01:35:10;34.50;;;17.60;;
77400;SDS011;74775;45.476;11.016;2024-01-16T01:37:38;39.20;;;19.30;;
77400;SDS011;74775;45.476;11.016;2024-01-16T01:40:05;33.60;;;16.90;;
77400;SDS011;74775;45.476;11.016;2024-01-16T01:42:33;33.30;;;17.00;;
77400;SDS011;74775;45.476;11.016;2024-01-16T01:44:59;36.20;;;18.40;;
77400;SDS011;74775;45.476;11.016;2024-01-16T01:47:26;37.40;;;18.80;;
77400;SDS011;74775;45.476;11.016;2024-01-16T01:49:53;33.30;;;17.10;;
77400;SDS011;74775;45.476;11.016;2024-01-16T01:52:21;30.40;;;16.10;;
77400;SDS011;74775;45.476;11.016;2024-01-16T01:54:48;31.50;;;14.90;;
77400;SDS011;74775;45.476;11.016;2024-01-16T01:57:15;26.40;;;14.00;;
77400;SDS011;74775;45.476;11.016;2024-01-16T01:59:42;27.20;;;14.70;;
77400;SDS011;74775;45.476;11.016;2024-01-16T02:02:09;27.20;;;13.80;;
77400;SDS011;74775;45.476;11.016;2024-01-16T02:04:37;26.40;;;13.20;;
77400;SDS011;74775;45.476;11.016;2024-01-16T02:07:05;24.30;;;13.50;;
77400;SDS011;74775;45.476;11.016;2024-01-16T02:09:32;21.50;;;12.10;;
77400;SDS011;74775;45.476;11.016;2024-01-16T02:11:59;22.10;;;11.50;;
77400;SDS011;74775;45.476;11.016;2024-01-16T02:14:27;22.10;;;11.40;;
77400;SDS011;74775;45.476;11.016;2024-01-16T02:16:54;23.30;;;10.90;;
77400;SDS011;74775;45.476;11.016;2024-01-16T02:19:21;22.60;;;11.70;;
77400;SDS011;74775;45.476;11.016;2024-01-16T02:21:49;20.40;;;11.40;;
77400;SDS011;74775;45.476;11.016;2024-01-16T02:24:17;20.00;;;11.40;;
77400;SDS011;74775;45.476;11.016;2024-01-16T02:26:44;21.30;;;11.30;;
77400;SDS011;74775;45.476;11.016;2024-01-16T02:29:13;20.70;;;11.40;;
77400;SDS011;74775;45.476;11.016;2024-01-16T02:31:40;21.70;;;11.80;;
77400;SDS011;74775;45.476;11.016;2024-01-16T02:34:07;19.90;;;10.70;;
77400;SDS011;74775;45.476;11.016;2024-01-16T02:36:34;20.90;;;11.20;;
77400;SDS011;74775;45.476;11.016;2024-01-16T02:39:01;20.30;;;11.10;;
77400;SDS011;74775;45.476;11.016;2024-01-16T02:41:28;18.90;;;10.50;;
77400;SDS011;74775;45.476;11.016;2024-01-16T02:43:55;19.50;;;10.30;;
77400;SDS011;74775;45.476;11.016;2024-01-16T02:46:21;20.60;;;10.00;;
77400;SDS011;74775;45.476;11.016;2024-01-16T02:48:48;19.10;;;10.80;;
77400;SDS011;74775;45.476;11.016;2024-01-16T02:51:15;19.50;;;9.90;;
77400;SDS011;74775;45.476;11.016;2024-01-16T02:53:42;18.20;;;10.20;;
77400;SDS011;74775;45.476;11.016;2024-01-16T02:56:09;19.10;;;10.10;;
77400;SDS011;74775;45.476;11.016;2024-01-16T02:58:36;19.70;;;10.30;;
77400;SDS011;74775;45.476;11.016;2024-01-16T03:01:03;18.20;;;9.40;;
77400;SDS011;74775;45.476;11.016;2024-01-16T03:03:30;20.10;;;10.40;;
77400;SDS011;74775;45.476;11.016;2024-01-16T03:05:57;17.50;;;9.40;;
77400;SDS011;74775;45.476;11.016;2024-01-16T03:08:24;16.10;;;9.10;;
77400;SDS011;74775;45.476;11.016;2024-01-16T03:10:51;16.50;;;8.30;;
77400;SDS011;74775;45.476;11.016;2024-01-16T03:13:19;18.00;;;8.80;;
77400;SDS011;74775;45.476;11.016;2024-01-16T03:15:45;17.20;;;8.50;;
77400;SDS011;74775;45.476;11.016;2024-01-16T03:18:12;20.00;;;8.90;;
77400;SDS011;74775;45.476;11.016;2024-01-16T03:20:39;17.30;;;8.80;;
77400;SDS011;74775;45.476;11.016;2024-01-16T03:23:06;17.20;;;8.60;;
77400;SDS011;74775;45.476;11.016;2024-01-16T03:25:33;16.20;;;9.10;;
77400;SDS011;74775;45.476;11.016;2024-01-16T03:28:05;16.00;;;8.50;;
77400;SDS011;74775;45.476;11.016;2024-01-16T03:33:02;15.20;;;7.20;;
77400;SDS011;74775;45.476;11.016;2024-01-16T03:35:29;14.50;;;7.80;;
77400;SDS011;74775;45.476;11.016;2024-01-16T03:37:56;13.70;;;7.50;;
77400;SDS011;74775;45.476;11.016;2024-01-16T03:40:23;15.70;;;7.90;;
77400;SDS011;74775;45.476;11.016;2024-01-16T03:42:50;14.50;;;7.50;;
77400;SDS011;74775;45.476;11.016;2024-01-16T03:45:17;15.20;;;7.60;;
77400;SDS011;74775;45.476;11.016;2024-01-16T03:47:48;17.50;;;7.90;;
77400;SDS011;74775;45.476;11.016;2024-01-16T03:50:16;15.10;;;8.00;;
77400;SDS011;74775;45.476;11.016;2024-01-16T03:52:43;18.70;;;8.80;;
77400;SDS011;74775;45.476;11.016;2024-01-16T03:55:10;15.10;;;8.20;;
77400;SDS011;74775;45.476;11.016;2024-01-16T03:57:37;18.20;;;8.50;;
77400;SDS011;74775;45.476;11.016;2024-01-16T04:00:04;14.70;;;7.90;;
77400;SDS011;74775;45.476;11.016;2024-01-16T04:02:39;14.20;;;8.00;;
77400;SDS011;74775;45.476;11.016;2024-01-16T04:05:06;16.50;;;8.00;;
77400;SDS011;74775;45.476;11.016;2024-01-16T04:07:33;15.20;;;7.60;;
77400;SDS011;74775;45.476;11.016;2024-01-16T04:10:00;13.60;;;7.10;;
77400;SDS011;74775;45.476;11.016;2024-01-16T04:12:28;12.80;;;7.00;;
77400;SDS011;74775;45.476;11.016;2024-01-16T04:14:54;16.00;;;7.80;;
77400;SDS011;74775;45.476;11.016;2024-01-16T04:17:21;14.80;;;7.20;;
77400;SDS011;74775;45.476;11.016;2024-01-16T04:19:48;12.10;;;6.50;;
77400;SDS011;74775;45.476;11.016;2024-01-16T04:22:15;11.80;;;6.60;;
77400;SDS011;74775;45.476;11.016;2024-01-16T04:24:41;13.50;;;7.10;;
77400;SDS011;74775;45.476;11.016;2024-01-16T04:27:10;12.40;;;6.70;;
77400;SDS011;74775;45.476;11.016;2024-01-16T04:29:37;12.90;;;7.00;;
77400;SDS011;74775;45.476;11.016;2024-01-16T04:32:04;12.10;;;6.50;;
77400;SDS011;74775;45.476;11.016;2024-01-16T04:34:31;13.80;;;7.00;;
77400;SDS011;74775;45.476;11.016;2024-01-16T04:36:58;14.50;;;7.00;;
77400;SDS011;74775;45.476;11.016;2024-01-16T04:39:25;13.90;;;6.90;;
77400;SDS011;74775;45.476;11.016;2024-01-16T04:41:51;15.70;;;7.50;;
77400;SDS011;74775;45.476;11.016;2024-01-16T04:44:18;15.40;;;7.80;;
77400;SDS011;74775;45.476;11.016;2024-01-16T04:46:45;14.20;;;7.80;;
77400;SDS011;74775;45.476;11.016;2024-01-16T04:49:12;13.70;;;6.80;;
77400;SDS011;74775;45.476;11.016;2024-01-16T04:51:39;13.30;;;7.20;;
77400;SDS011;74775;45.476;11.016;2024-01-16T04:54:06;12.40;;;6.90;;
77400;SDS011;74775;45.476;11.016;2024-01-16T04:56:33;10.40;;;6.00;;
77400;SDS011;74775;45.476;11.016;2024-01-16T04:59:00;10.70;;;5.90;;
77400;SDS011;74775;45.476;11.016;2024-01-16T05:01:27;11.50;;;6.50;;
77400;SDS011;74775;45.476;11.016;2024-01-16T05:03:54;10.60;;;6.50;;
77400;SDS011;74775;45.476;11.016;2024-01-16T05:06:21;10.20;;;5.50;;
77400;SDS011;74775;45.476;11.016;2024-01-16T05:08:48;12.20;;;6.10;;
77400;SDS011;74775;45.476;11.016;2024-01-16T05:11:15;10.90;;;5.90;;
77400;SDS011;74775;45.476;11.016;2024-01-16T05:13:42;11.90;;;5.70;;
77400;SDS011;74775;45.476;11.016;2024-01-16T05:16:09;11.50;;;6.20;;
77400;SDS011;74775;45.476;11.016;2024-01-16T05:18:35;9.70;;;5.60;;
77400;SDS011;74775;45.476;11.016;2024-01-16T05:21:03;13.70;;;6.70;;
77400;SDS011;74775;45.476;11.016;2024-01-16T05:23:31;14.20;;;6.60;;
77400;SDS011;74775;45.476;11.016;2024-01-16T05:25:57;13.90;;;7.30;;
77400;SDS011;74775;45.476;11.016;2024-01-16T05:28:24;14.00;;;6.60;;
77400;SDS011;74775;45.476;11.016;2024-01-16T05:30:51;11.30;;;6.40;;
77400;SDS011;74775;45.476;11.016;2024-01-16T05:33:18;14.20;;;6.90;;
77400;SDS011;74775;45.476;11.016;2024-01-16T05:35:45;13.90;;;6.50;;
77400;SDS011;74775;45.476;11.016;2024-01-16T05:38:12;12.90;;;6.10;;
77400;SDS011;74775;45.476;11.016;2024-01-16T05:40:39;12.90;;;5.90;;
77400;SDS011;74775;45.476;11.016;2024-01-16T05:43:06;12.40;;;6.50;;
77400;SDS011;74775;45.476;11.016;2024-01-16T05:45:33;12.70;;;6.50;;
77400;SDS011;74775;45.476;11.016;2024-01-16T05:48:00;10.40;;;6.00;;
77400;SDS011;74775;45.476;11.016;2024-01-16T05:50:27;10.80;;;5.30;;
77400;SDS011;74775;45.476;11.016;2024-01-16T05:52:57;14.00;;;6.10;;
77400;SDS011;74775;45.476;11.016;2024-01-16T05:55:24;12.50;;;6.50;;
77400;SDS011;74775;45.476;11.016;2024-01-16T05:57:51;9.90;;;5.30;;
77400;SDS011;74775;45.476;11.016;2024-01-16T06:00:18;10.40;;;5.20;;
77400;SDS011;74775;45.476;11.016;2024-01-16T06:02:49;9.90;;;5.80;;
77400;SDS011;74775;45.476;11.016;2024-01-16T06:05:15;10.80;;;5.40;;
77400;SDS011;74775;45.476;11.016;2024-01-16T06:07:42;8.90;;;5.30;;
77400;SDS011;74775;45.476;11.016;2024-01-16T06:10:11;9.50;;;5.00;;
77400;SDS011;74775;45.476;11.016;2024-01-16T06:12:40;7.50;;;4.70;;
77400;SDS011;74775;45.476;11.016;2024-01-16T06:15:07;7.90;;;4.60;;
77400;SDS011;74775;45.476;11.016;2024-01-16T06:17:34;9.10;;;4.40;;
77400;SDS011;74775;45.476;11.016;2024-01-16T06:20:01;8.80;;;4.70;;
77400;SDS011;74775;45.476;11.016;2024-01-16T06:22:29;12.20;;;5.40;;
77400;SDS011;74775;45.476;11.016;2024-01-16T06:24:57;8.40;;;4.30;;
77400;SDS011;74775;45.476;11.016;2024-01-16T06:27:24;6.70;;;3.70;;
77400;SDS011;74775;45.476;11.016;2024-01-16T06:29:50;7.90;;;4.20;;
77400;SDS011;74775;45.476;11.016;2024-01-16T06:32:17;8.00;;;4.30;;
77400;SDS011;74775;45.476;11.016;2024-01-16T06:34:45;8.70;;;4.40;;
77400;SDS011;74775;45.476;11.016;2024-01-16T06:37:12;6.30;;;3.50;;
77400;SDS011;74775;45.476;11.016;2024-01-16T06:39:39;7.80;;;4.00;;
77400;SDS011;74775;45.476;11.016;2024-01-16T06:42:26;6.80;;;3.60;;
77400;SDS011;74775;45.476;11.016;2024-01-16T06:44:53;6.40;;;4.00;;
77400;SDS011;74775;45.476;11.016;2024-01-16T06:47:20;8.10;;;4.20;;
77400;SDS011;74775;45.476;11.016;2024-01-16T06:49:47;8.40;;;4.60;;
77400;SDS011;74775;45.476;11.016;2024-01-16T06:54:44;6.60;;;3.30;;
77400;SDS011;74775;45.476;11.016;2024-01-16T06:57:10;7.30;;;3.70;;
77400;SDS011;74775;45.476;11.016;2024-01-16T06:59:37;6.70;;;3.70;;
77400;SDS011;74775;45.476;11.016;2024-01-16T07:02:04;7.10;;;3.50;;
77400;SDS011;74775;45.476;11.016;2024-01-16T07:04:32;7.20;;;3.30;;
77400;SDS011;74775;45.476;11.016;2024-01-16T07:06:59;6.20;;;3.50;;
77400;SDS011;74775;45.476;11.016;2024-01-16T07:09:26;5.30;;;3.20;;
77400;SDS011;74775;45.476;11.016;2024-01-16T07:11:53;6.70;;;3.30;;
77400;SDS011;74775;45.476;11.016;2024-01-16T07:14:21;6.60;;;3.10;;
77400;SDS011;74775;45.476;11.016;2024-01-16T07:16:47;5.20;;;3.10;;
77400;SDS011;74775;45.476;11.016;2024-01-16T07:19:16;8.70;;;4.20;;
77400;SDS011;74775;45.476;11.016;2024-01-16T07:21:43;7.90;;;4.40;;
77400;SDS011;74775;45.476;11.016;2024-01-16T07:24:11;9.50;;;4.90;;
77400;SDS011;74775;45.476;11.016;2024-01-16T07:26:40;9.50;;;4.90;;
77400;SDS011;74775;45.476;11.016;2024-01-16T07:29:08;9.80;;;5.10;;
77400;SDS011;74775;45.476;11.016;2024-01-16T07:31:38;8.90;;;4.80;;
77400;SDS011;74775;45.476;11.016;2024-01-16T07:34:05;8.90;;;4.80;;
77400;SDS011;74775;45.476;11.016;2024-01-16T07:36:33;10.50;;;4.90;;
77400;SDS011;74775;45.476;11.016;2024-01-16T07:39:00;9.70;;;4.80;;
77400;SDS011;74775;45.476;11.016;2024-01-16T07:41:30;8.00;;;4.60;;
77400;SDS011;74775;45.476;11.016;2024-01-16T07:43:57;12.50;;;5.90;;
77400;SDS011;74775;45.476;11.016;2024-01-16T07:46:24;10.10;;;5.50;;
77400;SDS011;74775;45.476;11.016;2024-01-16T07:48:52;93.40;;;16.40;;
77400;SDS011;74775;45.476;11.016;2024-01-16T07:51:19;39.10;;;10.00;;
77400;SDS011;74775;45.476;11.016;2024-01-16T07:53:51;24.80;;;8.50;;
77400;SDS011;74775;45.476;11.016;2024-01-16T07:56:31;15.60;;;8.70;;
77400;SDS011;74775;45.476;11.016;2024-01-16T07:58:58;36.70;;;11.30;;
77400;SDS011;74775;45.476;11.016;2024-01-16T08:01:26;23.50;;;9.40;;
77400;SDS011;74775;45.476;11.016;2024-01-16T08:03:53;21.80;;;9.00;;
77400;SDS011;74775;45.476;11.016;2024-01-16T08:06:20;12.10;;;6.60;;
77400;SDS011;74775;45.476;11.016;2024-01-16T08:08:48;12.60;;;6.00;;
77400;SDS011;74775;45.476;11.016;2024-01-16T08:11:16;10.40;;;5.60;;
77400;SDS011;74775;45.476;11.016;2024-01-16T08:13:44;15.60;;;6.50;;
77400;SDS011;74775;45.476;11.016;2024-01-16T08:16:11;12.50;;;6.30;;
77400;SDS011;74775;45.476;11.016;2024-01-16T08:18:38;9.80;;;5.70;;
77400;SDS011;74775;45.476;11.016;2024-01-16T08:21:05;16.60;;;5.80;;
77400;SDS011;74775;45.476;11.016;2024-01-16T08:23:32;17.40;;;6.10;;
77400;SDS011;74775;45.476;11.016;2024-01-16T08:25:59;14.00;;;5.60;;
77400;SDS011;74775;45.476;11.016;2024-01-16T08:28:27;11.20;;;5.60;;
77400;SDS011;74775;45.476;11.016;2024-01-16T08:30:54;11.30;;;5.80;;
77400;SDS011;74775;45.476;11.016;2024-01-16T08:33:21;11.10;;;5.70;;
77400;SDS011;74775;45.476;11.016;2024-01-16T08:35:59;12.20;;;5.80;;
77400;SDS011;74775;45.476;11.016;2024-01-16T08:38:26;12.40;;;6.50;;
77400;SDS011;74775;45.476;11.016;2024-01-16T08:40:53;12.00;;;6.10;;
77400;SDS011;74775;45.476;11.016;2024-01-16T08:43:20;14.40;;;6.90;;
77400;SDS011;74775;45.476;11.016;2024-01-16T08:45:47;15.60;;;7.50;;
77400;SDS011;74775;45.476;11.016;2024-01-16T08:48:14;13.50;;;7.60;;
77400;SDS011;74775;45.476;11.016;2024-01-16T08:50:42;18.60;;;8.50;;
77400;SDS011;74775;45.476;11.016;2024-01-16T08:53:09;16.60;;;7.90;;
77400;SDS011;74775;45.476;11.016;2024-01-16T08:55:35;18.50;;;8.80;;
77400;SDS011;74775;45.476;11.016;2024-01-16T08:58:03;14.90;;;8.20;;
77400;SDS011;74775;45.476;11.016;2024-01-16T09:00:30;14.60;;;8.60;;
77400;SDS011;74775;45.476;11.016;2024-01-16T09:02:57;15.30;;;8.10;;
77400;SDS011;74775;45.476;11.016;2024-01-16T09:05:26;17.70;;;9.20;;
77400;SDS011;74775;45.476;11.016;2024-01-16T09:07:53;19.00;;;9.90;;
77400;SDS011;74775;45.476;11.016;2024-01-16T09:10:20;17.90;;;9.10;;
77400;SDS011;74775;45.476;11.016;2024-01-16T09:12:47;21.20;;;10.20;;
77400;SDS011;74775;45.476;11.016;2024-01-16T09:15:15;26.50;;;13.10;;
77400;SDS011;74775;45.476;11.016;2024-01-16T09:17:42;21.90;;;12.20;;
77400;SDS011;74775;45.476;11.016;2024-01-16T09:20:09;26.90;;;12.50;;
77400;SDS011;74775;45.476;11.016;2024-01-16T09:22:37;25.80;;;12.80;;
77400;SDS011;74775;45.476;11.016;2024-01-16T09:25:04;25.80;;;12.30;;
77400;SDS011;74775;45.476;11.016;2024-01-16T09:27:32;25.80;;;12.10;;
77400;SDS011;74775;45.476;11.016;2024-01-16T09:29:59;22.00;;;12.10;;
77400;SDS011;74775;45.476;11.016;2024-01-16T09:32:26;22.90;;;12.60;;
77400;SDS011;74775;45.476;11.016;2024-01-16T09:34:53;23.50;;;12.80;;
77400;SDS011;74775;45.476;11.016;2024-01-16T09:37:20;22.30;;;13.50;;
77400;SDS011;74775;45.476;11.016;2024-01-16T09:39:47;21.60;;;12.00;;
77400;SDS011;74775;45.476;11.016;2024-01-16T09:42:15;23.60;;;12.20;;
77400;SDS011;74775;45.476;11.016;2024-01-16T09:44:43;23.80;;;13.20;;
77400;SDS011;74775;45.476;11.016;2024-01-16T09:47:10;26.30;;;12.50;;
77400;SDS011;74775;45.476;11.016;2024-01-16T09:49:37;23.90;;;11.60;;
77400;SDS011;74775;45.476;11.016;2024-01-16T09:52:06;24.40;;;12.30;;
77400;SDS011;74775;45.476;11.016;2024-01-16T09:54:32;24.00;;;12.60;;
77400;SDS011;74775;45.476;11.016;2024-01-16T09:56:59;22.20;;;12.70;;
77400;SDS011;74775;45.476;11.016;2024-01-16T09:59:29;25.00;;;12.90;;
77400;SDS011;74775;45.476;11.016;2024-01-16T10:01:57;25.70;;;12.80;;
77400;SDS011;74775;45.476;11.016;2024-01-16T10:04:27;27.40;;;13.10;;
77400;SDS011;74775;45.476;11.016;2024-01-16T10:06:54;22.80;;;13.10;;
77400;SDS011;74775;45.476;11.016;2024-01-16T10:09:24;25.50;;;12.60;;
77400;SDS011;74775;45.476;11.016;2024-01-16T10:11:52;23.10;;;11.40;;
77400;SDS011;74775;45.476;11.016;2024-01-16T10:14:19;21.90;;;11.70;;
77400;SDS011;74775;45.476;11.016;2024-01-16T10:16:56;19.30;;;9.90;;
77400;SDS011;74775;45.476;11.016;2024-01-16T10:19:28;17.10;;;7.70;;
77400;SDS011;74775;45.476;11.016;2024-01-16T10:22:12;15.60;;;8.80;;
77400;SDS011;74775;45.476;11.016;2024-01-16T10:24:39;11.50;;;6.90;;
77400;SDS011;74775;45.476;11.016;2024-01-16T10:27:07;11.20;;;6.00;;
77400;SDS011;74775;45.476;11.016;2024-01-16T10:29:34;8.80;;;5.10;;
77400;SDS011;74775;45.476;11.016;2024-01-16T10:32:26;8.60;;;5.10;;
77400;SDS011;74775;45.476;11.016;2024-01-16T10:35:08;9.00;;;5.50;;
77400;SDS011;74775;45.476;11.016;2024-01-16T10:37:46;9.60;;;5.60;;
77400;SDS011;74775;45.476;11.016;2024-01-16T10:40:18;8.70;;;5.10;;
77400;SDS011;74775;45.476;11.016;2024-01-16T10:43:03;7.20;;;4.30;;
77400;SDS011;74775;45.476;11.016;2024-01-16T10:45:31;5.90;;;3.30;;
77400;SDS011;74775;45.476;11.016;2024-01-16T10:48:02;3.80;;;2.40;;
77400;SDS011;74775;45.476;11.016;2024-01-16T10:50:34;2.90;;;1.70;;
77400;SDS011;74775;45.476;11.016;2024-01-16T10:53:04;5.30;;;2.20;;
77400;SDS011;74775;45.476;11.016;2024-01-16T10:55:37;3.10;;;2.00;;
77400;SDS011;74775;45.476;11.016;2024-01-16T10:58:09;3.20;;;2.30;;
77400;SDS011;74775;45.476;11.016;2024-01-16T11:00:39;2.30;;;1.80;;
77400;SDS011;74775;45.476;11.016;2024-01-16T11:03:15;2.60;;;1.60;;
77400;SDS011;74775;45.476;11.016;2024-01-16T11:05:45;2.00;;;1.40;;
77400;SDS011;74775;45.476;11.016;2024-01-16T11:08:13;1.80;;;1.30;;
77400;SDS011;74775;45.476;11.016;2024-01-16T11:10:43;3.40;;;1.30;;
77400;SDS011;74775;45.476;11.016;2024-01-16T11:13:10;2.10;;;1.10;;
77400;SDS011;74775;45.476;11.016;2024-01-16T11:15:37;3.50;;;1.60;;
77400;SDS011;74775;45.476;11.016;2024-01-16T11:18:04;2.50;;;1.70;;
77400;SDS011;74775;45.476;11.016;2024-01-16T11:20:32;3.00;;;2.10;;
77400;SDS011;74775;45.476;11.016;2024-01-16T11:23:21;2.70;;;1.70;;
77400;SDS011;74775;45.476;11.016;2024-01-16T11:25:48;3.70;;;2.10;;
77400;SDS011;74775;45.476;11.016;2024-01-16T11:28:15;3.00;;;1.50;;
77400;SDS011;74775;45.476;11.016;2024-01-16T11:30:43;4.30;;;1.70;;
77400;SDS011;74775;45.476;11.016;2024-01-16T11:39:22;3.40;;;1.40;;
77400;SDS011;74775;45.476;11.016;2024-01-16T11:41:53;3.00;;;1.80;;
77400;SDS011;74775;45.476;11.016;2024-01-16T11:45:47;3.30;;;1.40;;
77400;SDS011;74775;45.476;11.016;2024-01-16T11:47:20;1.90;;;1.60;;
77400;SDS011;74775;45.476;11.016;2024-01-16T11:49:48;2.50;;;1.70;;
77400;SDS011;74775;45.476;11.016;2024-01-16T11:52:38;2.70;;;1.40;;
77400;SDS011;74775;45.476;11.016;2024-01-16T12:01:20;2.90;;;1.30;;
77400;SDS011;74775;45.476;11.016;2024-01-16T12:04:06;2.00;;;1.40;;
77400;SDS011;74775;45.476;11.016;2024-01-16T12:06:36;2.90;;;1.50;;
77400;SDS011;74775;45.476;11.016;2024-01-16T12:09:14;2.90;;;1.80;;
77400;SDS011;74775;45.476;11.016;2024-01-16T12:11:42;1.80;;;1.30;;
77400;SDS011;74775;45.476;11.016;2024-01-16T12:14:13;2.60;;;1.30;;
77400;SDS011;74775;45.476;11.016;2024-01-16T12:16:40;3.20;;;1.70;;
77400;SDS011;74775;45.476;11.016;2024-01-16T12:19:07;1.90;;;1.50;;
77400;SDS011;74775;45.476;11.016;2024-01-16T12:21:38;2.70;;;1.60;;
77400;SDS011;74775;45.476;11.016;2024-01-16T12:24:05;3.30;;;1.60;;
77400;SDS011;74775;45.476;11.016;2024-01-16T12:26:38;3.00;;;1.80;;
77400;SDS011;74775;45.476;11.016;2024-01-16T12:29:07;2.90;;;1.80;;
77400;SDS011;74775;45.476;11.016;2024-01-16T12:31:34;4.10;;;2.10;;
77400;SDS011;74775;45.476;11.016;2024-01-16T12:34:08;4.00;;;2.10;;
77400;SDS011;74775;45.476;11.016;2024-01-16T12:36:37;4.60;;;2.30;;
77400;SDS011;74775;45.476;11.016;2024-01-16T12:39:05;4.20;;;2.40;;
77400;SDS011;74775;45.476;11.016;2024-01-16T12:41:32;4.90;;;3.00;;
77400;SDS011;74775;45.476;11.016;2024-01-16T12:44:08;5.00;;;2.90;;
77400;SDS011;74775;45.476;11.016;2024-01-16T12:46:53;6.00;;;3.80;;
77400;SDS011;74775;45.476;11.016;2024-01-16T12:49:23;6.60;;;4.30;;
77400;SDS011;74775;45.476;11.016;2024-01-16T12:51:51;7.50;;;5.00;;
77400;SDS011;74775;45.476;11.016;2024-01-16T12:54:19;10.50;;;6.00;;
77400;SDS011;74775;45.476;11.016;2024-01-16T12:56:57;8.60;;;5.50;;
77400;SDS011;74775;45.476;11.016;2024-01-16T12:59:27;8.90;;;4.80;;
77400;SDS011;74775;45.476;11.016;2024-01-16T13:01:56;6.10;;;3.90;;
77400;SDS011;74775;45.476;11.016;2024-01-16T13:04:23;7.80;;;4.60;;
77400;SDS011;74775;45.476;11.016;2024-01-16T13:06:50;6.60;;;4.10;;
77400;SDS011;74775;45.476;11.016;2024-01-16T13:09:17;6.80;;;4.40;;
77400;SDS011;74775;45.476;11.016;2024-01-16T13:11:49;6.50;;;3.60;;
77400;SDS011;74775;45.476;11.016;2024-01-16T13:14:18;7.20;;;4.40;;
77400;SDS011;74775;45.476;11.016;2024-01-16T13:16:51;7.30;;;4.90;;
77400;SDS011;74775;45.476;11.016;2024-01-16T13:19:19;8.40;;;4.90;;
77400;SDS011;74775;45.476;11.016;2024-01-16T13:21:47;8.80;;;5.10;;
77400;SDS011;74775;45.476;11.016;2024-01-16T13:24:15;8.60;;;4.80;;
77400;SDS011;74775;45.476;11.016;2024-01-16T13:26:44;8.00;;;5.00;;
77400;SDS011;74775;45.476;11.016;2024-01-16T13:29:11;7.50;;;4.60;;
77400;SDS011;74775;45.476;11.016;2024-01-16T13:31:39;7.70;;;4.70;;
77400;SDS011;74775;45.476;11.016;2024-01-16T13:34:06;7.10;;;5.20;;
77400;SDS011;74775;45.476;11.016;2024-01-16T13:36:34;7.00;;;4.60;;
77400;SDS011;74775;45.476;11.016;2024-01-16T13:39:21;7.80;;;5.50;;
77400;SDS011;74775;45.476;11.016;2024-01-16T13:41:47;9.70;;;6.00;;
77400;SDS011;74775;45.476;11.016;2024-01-16T13:44:14;9.40;;;5.60;;
77400;SDS011;74775;45.476;11.016;2024-01-16T13:46:42;8.10;;;5.20;;
77400;SDS011;74775;45.476;11.016;2024-01-16T13:49:27;9.30;;;5.40;;
77400;SDS011;74775;45.476;11.016;2024-01-16T13:51:54;7.40;;;5.20;;
77400;SDS011;74775;45.476;11.016;2024-01-16T13:54:21;7.20;;;5.10;;
77400;SDS011;74775;45.476;11.016;2024-01-16T13:56:47;8.10;;;5.40;;
77400;SDS011;74775;45.476;11.016;2024-01-16T13:59:31;7.10;;;4.70;;
77400;SDS011;74775;45.476;11.016;2024-01-16T14:01:58;8.30;;;5.20;;
77400;SDS011;74775;45.476;11.016;2024-01-16T14:04:25;7.20;;;4.70;;
77400;SDS011;74775;45.476;11.016;2024-01-16T14:06:52;9.00;;;5.40;;
77400;SDS011;74775;45.476;11.016;2024-01-16T14:09:38;8.90;;;4.90;;
77400;SDS011;74775;45.476;11.016;2024-01-16T14:12:09;7.60;;;4.10;;
77400;SDS011;74775;45.476;11.016;2024-01-16T14:14:36;6.80;;;4.10;;
77400;SDS011;74775;45.476;11.016;2024-01-16T14:17:06;6.90;;;4.20;;
77400;SDS011;74775;45.476;11.016;2024-01-16T14:19:36;6.00;;;4.50;;
77400;SDS011;74775;45.476;11.016;2024-01-16T14:22:05;7.40;;;4.50;;
77400;SDS011;74775;45.476;11.016;2024-01-16T14:24:32;7.00;;;4.40;;
77400;SDS011;74775;45.476;11.016;2024-01-16T14:26:59;6.50;;;4.00;;
77400;SDS011;74775;45.476;11.016;2024-01-16T14:29:26;7.50;;;4.60;;
77400;SDS011;74775;45.476;11.016;2024-01-16T14:31:56;6.60;;;4.10;;
77400;SDS011;74775;45.476;11.016;2024-01-16T14:34:25;5.90;;;3.90;;
77400;SDS011;74775;45.476;11.016;2024-01-16T14:39:20;6.70;;;3.70;;
77400;SDS011;74775;45.476;11.016;2024-01-16T14:41:53;5.80;;;3.40;;
77400;SDS011;74775;45.476;11.016;2024-01-16T14:44:20;5.70;;;4.10;;
77400;SDS011;74775;45.476;11.016;2024-01-16T14:46:47;5.60;;;4.10;;
77400;SDS011;74775;45.476;11.016;2024-01-16T14:49:19;8.40;;;4.50;;
77400;SDS011;74775;45.476;11.016;2024-01-16T14:51:48;6.10;;;4.30;;